Terminal Aerodrome Forecast
Issued by NWS Wilmington, NC

Current Version | Previous Version | Graphics & Text | Print | Product List | Glossary Off
Versions: 1 2 3 4 5 6 7 8 9 10 11 12 13 14 15 16 17 18 19 20 21

409
FTUS42 KILM 181721
TAFLBT
TAF
KLBT 181721Z 1818/1918 07009KT P6SM BKN045 BKN070
     FM190700 08005KT P6SM VCSH OVC015
     FM191000 07004KT 4SM BR OVC006=

USA.gov is the U.S. government's official web portal to all federal, state and local government web resources and services.